Time;durP1;ratioP1;P1;durP2;ratioP2;P2;SDS_P1;SDS_P2;PMS_P1;PMS_P2;Temp;Humidity;BMP_temperature;BMP_pressure;BME280_temperature;BME280_humidity;BME280_pressure;Samples;Min_cycle;Max_cycle;Signal;HPM_P1;HPM_P2
2023/05/14 00:02:19;;;;;;;6.53;3.22;;;;;;;12.53;100.00;98333.75;5060051;28;20053;-94
2023/05/14 00:04:45;;;;;;;6.57;3.58;;;;;;;12.45;100.00;98317.25;5058217;28;20071;-94
2023/05/14 00:07:10;;;;;;;6.03;3.00;;;;;;;12.60;100.00;98332.59;5059608;28;20041;-94
2023/05/14 00:09:37;;;;;;;6.53;3.10;;;;;;;12.69;100.00;98352.66;5058418;28;20049;-95
2023/05/14 00:12:03;;;;;;;7.15;3.75;;;;;;;12.69;100.00;98353.53;5059655;28;20052;-94
2023/05/14 00:14:29;;;;;;;6.57;3.45;;;;;;;12.49;100.00;98310.81;5059178;28;20453;-95
2023/05/14 00:16:57;;;;;;;7.43;3.60;;;;;;;12.47;100.00;98304.69;5058391;28;20041;-93
2023/05/14 00:19:22;;;;;;;8.35;3.58;;;;;;;12.43;100.00;98295.97;5058183;28;20052;-94
2023/05/14 00:21:48;;;;;;;7.10;3.10;;;;;;;12.65;100.00;98317.25;5058519;28;20073;-95
2023/05/14 00:24:14;;;;;;;4.88;3.53;;;;;;;12.58;100.00;98305.13;5057908;28;20110;-94
2023/05/14 00:26:40;;;;;;;5.07;3.20;;;;;;;12.41;100.00;98279.16;5059162;28;20045;-94
2023/05/14 00:29:06;;;;;;;6.28;3.35;;;;;;;12.41;100.00;98295.16;5058838;28;20074;-94
2023/05/14 00:31:32;;;;;;;6.70;3.40;;;;;;;12.46;100.00;98293.16;5059452;28;20045;-94
2023/05/14 00:33:59;;;;;;;6.85;3.50;;;;;;;12.42;100.00;98286.22;5058471;28;20044;-94
2023/05/14 00:36:25;;;;;;;6.05;3.33;;;;;;;12.43;100.00;98287.97;5058728;28;20051;-94
2023/05/14 00:38:51;;;;;;;5.60;3.40;;;;;;;12.51;100.00;98299.19;5057076;28;20109;-94
2023/05/14 00:41:16;;;;;;;7.65;3.40;;;;;;;12.62;100.00;98320.06;5057112;28;20048;-94
2023/05/14 00:43:42;;;;;;;6.90;3.40;;;;;;;12.52;100.00;98303.56;5057812;28;20045;-94
2023/05/14 00:46:08;;;;;;;5.95;3.35;;;;;;;12.40;100.00;98285.41;5058391;28;20073;-94
2023/05/14 00:48:34;;;;;;;6.25;3.33;;;;;;;12.42;100.00;98285.34;5048342;28;20046;-95
2023/05/14 00:51:02;;;;;;;7.05;3.60;;;;;;;12.44;100.00;98281.69;5037318;28;20049;-94
2023/05/14 00:53:28;;;;;;;7.57;3.67;;;;;;;12.43;100.00;98277.28;5037401;28;20038;-93
2023/05/14 00:55:54;;;;;;;5.25;3.35;;;;;;;12.69;100.00;98307.31;5037287;28;20045;-94
2023/05/14 00:58:21;;;;;;;5.15;3.50;;;;;;;12.47;100.00;98268.22;5037186;28;20108;-93
2023/05/14 01:00:47;;;;;;;6.97;3.90;;;;;;;12.51;100.00;98279.63;5038503;28;20050;-94
2023/05/14 01:03:13;;;;;;;7.78;3.85;;;;;;;12.67;100.00;98282.50;5038047;28;20096;-94
2023/05/14 01:05:46;;;;;;;6.22;3.60;;;;;;;12.54;100.00;98274.16;5037793;28;20041;-94
2023/05/14 01:08:22;;;;;;;6.35;3.35;;;;;;;12.61;100.00;98280.09;5038645;28;20037;-95
2023/05/14 01:10:51;;;;;;;9.13;3.63;;;;;;;12.60;100.00;98270.34;5037987;28;20069;-94
2023/05/14 01:13:24;;;;;;;5.80;3.67;;;;;;;12.53;100.00;98259.09;5037794;28;20046;-94
2023/05/14 01:15:54;;;;;;;7.70;3.70;;;;;;;12.43;100.00;98245.28;5036846;28;20498;-94
2023/05/14 01:18:22;;;;;;;8.93;4.75;;;;;;;12.49;100.00;98270.81;5036171;28;20144;-95
2023/05/14 01:20:50;;;;;;;6.65;3.88;;;;;;;12.40;100.00;98253.41;5035728;28;20052;-94
2023/05/14 01:23:17;;;;;;;5.40;3.38;;;;;;;12.51;100.00;98272.50;5036777;28;20049;-94
2023/05/14 01:25:43;;;;;;;8.80;3.80;;;;;;;12.44;100.00;98260.34;5037660;28;20103;-93
2023/05/14 01:28:16;;;;;;;7.97;4.00;;;;;;;12.47;100.00;98262.91;5037200;28;20136;-95
2023/05/14 01:30:48;;;;;;;11.40;4.43;;;;;;;12.45;100.00;98248.75;5052357;28;20048;-93
2023/05/14 01:33:17;;;;;;;5.60;3.80;;;;;;;12.40;100.00;98240.06;5057601;28;20048;-93
2023/05/14 01:35:44;;;;;;;8.52;3.80;;;;;;;12.62;100.00;98274.72;5058251;28;20114;-95
2023/05/14 01:38:12;;;;;;;9.00;4.20;;;;;;;12.48;100.00;98248.63;5056886;28;20041;-93
2023/05/14 01:40:40;;;;;;;6.72;3.75;;;;;;;12.60;100.00;98265.91;5057107;28;20045;-94
2023/05/14 01:43:07;;;;;;;7.40;3.92;;;;;;;12.43;100.00;98234.63;5042204;28;20076;-95
2023/05/14 01:45:35;;;;;;;8.48;4.05;;;;;;;12.43;100.00;98231.97;5049539;28;20045;-94
2023/05/14 01:48:01;;;;;;;9.05;5.43;;;;;;;12.48;100.00;98237.94;5056673;28;20529;-93
2023/05/14 01:50:26;;;;;;;9.38;5.00;;;;;;;12.43;100.00;98242.63;5056643;28;20037;-93
2023/05/14 01:52:55;;;;;;;7.75;4.43;;;;;;;12.28;100.00;98220.16;5056606;28;20045;-93
2023/05/14 01:55:21;;;;;;;8.90;4.07;;;;;;;12.36;100.00;98234.94;5035979;28;20064;-92
2023/05/14 01:57:48;;;;;;;7.65;3.72;;;;;;;12.22;100.00;98215.06;5055917;28;20067;-92
2023/05/14 02:00:14;;;;;;;8.35;4.45;;;;;;;12.22;100.00;98217.75;5056125;28;20072;-92
2023/05/14 02:02:40;;;;;;;9.85;4.05;;;;;;;12.46;100.00;98255.81;5055835;28;20037;-93
2023/05/14 02:05:07;;;;;;;8.63;4.45;;;;;;;12.52;100.00;98255.56;5056095;28;20167;-93
2023/05/14 02:07:33;;;;;;;6.47;4.00;;;;;;;12.27;100.00;98207.78;5055780;28;20063;-94
2023/05/14 02:09:59;;;;;;;7.43;3.88;;;;;;;12.36;100.00;98219.84;5055884;28;20045;-93
2023/05/14 02:12:25;;;;;;;8.27;3.75;;;;;;;12.51;100.00;98244.94;5056448;28;20399;-95
2023/05/14 02:14:52;;;;;;;6.57;3.70;;;;;;;12.35;100.00;98220.75;5056655;28;20048;-92
2023/05/14 02:17:19;;;;;;;5.32;3.40;;;;;;;12.41;100.00;98225.81;5056017;28;20083;-93
2023/05/14 02:19:45;;;;;;;6.78;3.38;;;;;;;12.31;100.00;98200.47;5055602;28;20052;-94
2023/05/14 02:22:11;;;;;;;6.18;3.38;;;;;;;12.35;100.00;98215.41;5047947;28;20049;-93
2023/05/14 02:24:36;;;;;;;7.38;3.70;;;;;;;12.38;100.00;98228.59;5035685;28;20046;-96
2023/05/14 02:27:02;;;;;;;7.00;3.35;;;;;;;12.27;100.00;98201.53;5035586;28;20067;-93
2023/05/14 02:29:28;;;;;;;6.85;3.13;;;;;;;12.38;100.00;98206.41;5034905;28;20499;-94
2023/05/14 02:31:56;;;;;;;5.25;3.55;;;;;;;12.44;100.00;98203.50;5035284;28;20056;-91
2023/05/14 02:34:22;;;;;;;5.45;3.38;;;;;;;12.38;100.00;98193.94;5039206;28;20053;-92
2023/05/14 02:36:48;;;;;;;4.28;2.80;;;;;;;12.41;100.00;98191.16;5040485;28;20052;-95
2023/05/14 02:39:14;;;;;;;4.95;3.17;;;;;;;12.61;100.00;98218.75;5040671;28;20053;-95
2023/05/14 02:41:40;;;;;;;5.63;3.08;;;;;;;12.33;100.00;98174.63;5040862;28;20136;-94
2023/05/14 02:44:06;;;;;;;6.93;3.47;;;;;;;12.32;100.00;98183.56;5041865;28;20045;-94
2023/05/14 02:46:32;;;;;;;5.80;3.58;;;;;;;12.39;100.00;98181.50;5062853;28;20238;-94
2023/05/14 02:48:59;;;;;;;4.68;2.78;;;;;;;12.36;100.00;98182.50;5065232;28;20059;-94
2023/05/14 02:51:26;;;;;;;7.68;3.30;;;;;;;12.50;100.00;98197.88;5063996;28;20045;-94
2023/05/14 02:53:51;;;;;;;6.40;3.40;;;;;;;12.38;100.00;98172.59;5061939;28;20032;-95
2023/05/14 02:56:17;;;;;;;5.47;2.95;;;;;;;12.31;100.00;98165.81;5061946;28;20090;-95
2023/05/14 02:58:43;;;;;;;5.75;3.15;;;;;;;12.49;100.00;98194.38;5061997;28;20056;-94
2023/05/14 03:01:09;;;;;;;7.20;3.00;;;;;;;12.38;100.00;98169.94;5061047;28;20075;-95
2023/05/14 03:03:35;;;;;;;7.80;3.20;;;;;;;12.38;100.00;98155.75;5061048;28;20481;-94
2023/05/14 03:06:03;;;;;;;5.85;3.40;;;;;;;12.44;100.00;98160.81;5060734;28;20056;-96
2023/05/14 03:08:28;;;;;;;6.60;2.97;;;;;;;12.58;100.00;98187.75;5062369;28;20049;-95
2023/05/14 03:10:54;;;;;;;6.47;2.92;;;;;;;12.63;100.00;98190.22;5062780;28;20051;-96
2023/05/14 03:13:20;;;;;;;4.32;2.70;;;;;;;12.58;100.00;98181.53;5061810;28;20159;-94
2023/05/14 03:15:46;;;;;;;5.07;2.78;;;;;;;12.47;100.00;98164.22;5061542;28;20139;-96
2023/05/14 03:18:12;;;;;;;4.97;2.80;;;;;;;12.59;100.00;98180.59;5061515;28;20036;-95
2023/05/14 03:20:38;;;;;;;4.90;2.75;;;;;;;12.61;100.00;98170.75;5060746;28;20098;-95
2023/05/14 03:23:05;;;;;;;6.03;2.80;;;;;;;12.62;100.00;98175.13;5061647;28;20097;-95
2023/05/14 03:25:31;;;;;;;9.13;2.95;;;;;;;12.51;100.00;98163.16;5062158;28;20524;-94
2023/05/14 03:27:57;;;;;;;5.53;2.95;;;;;;;12.42;100.00;98154.69;5061955;28;20044;-96
2023/05/14 03:30:23;;;;;;;4.78;3.03;;;;;;;12.44;100.00;98150.16;5062993;28;20102;-96
2023/05/14 03:32:49;;;;;;;6.75;2.75;;;;;;;12.59;100.00;98176.13;5062859;28;20045;-96
2023/05/14 03:35:15;;;;;;;5.70;2.70;;;;;;;12.48;100.00;98163.28;5063209;28;20044;-95
2023/05/14 03:37:41;;;;;;;4.40;2.83;;;;;;;12.50;100.00;98155.22;5063144;28;20080;-95
2023/05/14 03:40:09;;;;;;;5.68;2.72;;;;;;;12.53;100.00;98157.72;5062417;28;20044;-95
2023/05/14 03:42:35;;;;;;;5.65;2.58;;;;;;;12.57;100.00;98155.81;5062813;28;20441;-95
2023/05/14 03:45:01;;;;;;;5.47;2.60;;;;;;;12.51;100.00;98152.50;5050627;28;20111;-95
2023/05/14 03:47:27;;;;;;;3.80;2.40;;;;;;;12.51;100.00;98156.94;5039804;28;20051;-96
2023/05/14 03:49:53;;;;;;;7.25;2.90;;;;;;;12.45;100.00;98146.56;5039737;28;20045;-94
2023/05/14 03:52:19;;;;;;;5.47;2.67;;;;;;;12.35;100.00;98134.56;5040866;28;20429;-95
2023/05/14 03:54:45;;;;;;;6.05;2.80;;;;;;;12.53;100.00;98165.72;5039814;28;20434;-96
2023/05/14 03:57:12;;;;;;;5.35;2.80;;;;;;;12.33;100.00;98134.63;5039817;28;20047;-94
2023/05/14 03:59:38;;;;;;;6.18;2.92;;;;;;;12.32;100.00;98135.59;5039509;28;20053;-95
2023/05/14 04:02:04;;;;;;;6.07;3.00;;;;;;;12.36;100.00;98157.63;5039619;28;20112;-96
2023/05/14 04:04:30;;;;;;;6.32;3.03;;;;;;;12.35;100.00;98162.09;5040846;28;20057;-94
2023/05/14 04:06:56;;;;;;;5.20;2.80;;;;;;;12.38;100.00;98169.09;5039428;28;20058;-95
2023/05/14 04:09:22;;;;;;;5.82;2.85;;;;;;;12.16;100.00;98140.69;5040921;28;20052;-95
2023/05/14 04:11:48;;;;;;;6.00;2.80;;;;;;;12.21;100.00;98160.03;5039488;28;20068;-93
2023/05/14 04:14:15;;;;;;;6.28;2.88;;;;;;;12.16;100.00;98154.03;5038866;28;20069;-95
2023/05/14 04:16:41;;;;;;;5.70;3.28;;;;;;;12.02;100.00;98127.97;5040114;28;20140;-96
2023/05/14 04:19:07;;;;;;;6.47;3.50;;;;;;;11.98;100.00;98130.84;5039774;28;20079;-94
2023/05/14 04:21:33;;;;;;;5.25;2.80;;;;;;;12.14;100.00;98129.22;5038687;28;20049;-94
2023/05/14 04:23:59;;;;;;;5.57;3.10;;;;;;;12.04;100.00;98127.94;5041169;28;20050;-96
2023/05/14 04:26:25;;;;;;;4.85;2.88;;;;;;;12.02;100.00;98127.13;5040831;28;20056;-95
2023/05/14 04:28:51;;;;;;;4.40;2.90;;;;;;;11.93;100.00;98125.72;5040646;28;20056;-96
2023/05/14 04:31:19;;;;;;;4.80;2.95;;;;;;;11.90;100.00;98112.50;5041275;28;20054;-96
2023/05/14 04:33:45;;;;;;;5.70;3.00;;;;;;;11.81;100.00;98099.56;5041264;28;20049;-96
2023/05/14 04:36:11;;;;;;;6.85;2.95;;;;;;;11.80;100.00;98105.84;5040677;28;20049;-95
2023/05/14 04:38:37;;;;;;;4.15;2.60;;;;;;;11.84;100.00;98105.63;5039697;28;20056;-96
2023/05/14 04:41:03;;;;;;;5.13;2.78;;;;;;;11.86;100.00;98103.78;5040436;28;20065;-95
2023/05/14 04:43:29;;;;;;;5.78;2.97;;;;;;;11.87;100.00;98100.16;5040429;28;20184;-94
2023/05/14 04:45:55;;;;;;;5.43;2.80;;;;;;;11.99;100.00;98103.25;5056854;28;20048;-93
2023/05/14 04:48:23;;;;;;;5.60;2.70;;;;;;;11.97;100.00;98086.47;5062161;28;20070;-94
2023/05/14 04:50:48;;;;;;;4.65;2.72;;;;;;;11.89;100.00;98102.81;5062372;28;20041;-95
2023/05/14 04:53:15;;;;;;;6.65;2.50;;;;;;;11.94;100.00;98107.94;5063456;28;20053;-95
2023/05/14 04:55:40;;;;;;;6.10;2.50;;;;;;;12.03;100.00;98110.19;5060682;28;20174;-94
2023/05/14 04:58:06;;;;;;;3.45;2.35;;;;;;;12.29;100.00;98149.03;5060162;28;20045;-94
2023/05/14 05:00:33;;;;;;;3.78;2.25;;;;;;;12.42;100.00;98168.03;5059277;28;20047;-94
2023/05/14 05:02:58;;;;;;;4.65;2.70;;;;;;;12.12;100.00;98141.75;5059702;28;20041;-95
2023/05/14 05:05:26;;;;;;;4.93;2.40;;;;;;;12.28;100.00;98150.84;5059498;28;20044;-94
2023/05/14 05:07:52;;;;;;;4.65;2.70;;;;;;;12.41;100.00;98169.81;5058870;28;20052;-94
2023/05/14 05:10:17;;;;;;;5.05;2.50;;;;;;;12.55;100.00;98190.53;5060911;28;20036;-94
2023/05/14 05:12:43;;;;;;;5.30;2.75;;;;;;;12.57;100.00;98182.47;5060973;28;20053;-95
2023/05/14 05:15:11;;;;;;;4.40;2.50;;;;;;;12.48;100.00;98173.94;5061964;28;20043;-94
2023/05/14 05:17:37;;;;;;;7.00;2.40;;;;;;;12.59;100.00;98205.47;5062264;28;20037;-95
2023/05/14 05:20:06;;;;;;;5.45;2.40;;;;;;;12.40;100.00;98153.88;5062657;28;20457;-93
2023/05/14 05:22:34;;;;;;;5.72;2.83;;;;;;;12.41;100.00;98159.16;5062001;28;20048;-96
2023/05/14 05:25:00;;;;;;;7.25;2.60;;;;;;;12.58;100.00;98187.75;5061942;28;20067;-95
2023/05/14 05:27:26;;;;;;;4.32;2.40;;;;;;;12.36;100.00;98147.84;5060834;28;20506;-93
2023/05/14 05:29:52;;;;;;;4.55;2.38;;;;;;;12.31;100.00;98145.34;5061473;28;20079;-94
2023/05/14 05:32:18;;;;;;;5.45;2.33;;;;;;;12.32;100.00;98144.44;5061936;28;20044;-95
2023/05/14 05:34:44;;;;;;;5.85;2.60;;;;;;;12.53;100.00;98150.63;5061838;28;20056;-95
2023/05/14 05:37:12;;;;;;;4.85;2.50;;;;;;;12.62;100.00;98149.34;5062016;28;20037;-95
2023/05/14 05:39:39;;;;;;;4.72;2.30;;;;;;;12.73;100.00;98156.84;5061872;28;20045;-95
2023/05/14 05:42:06;;;;;;;3.70;2.30;;;;;;;12.82;100.00;98167.09;5061843;28;20490;-96
2023/05/14 05:44:32;;;;;;;6.10;2.55;;;;;;;13.00;100.00;98162.72;5061156;28;20078;-95
2023/05/14 05:46:58;;;;;;;3.67;2.30;;;;;;;12.77;100.00;98133.56;5061098;28;20041;-95
2023/05/14 05:49:24;;;;;;;3.97;2.50;;;;;;;12.92;100.00;98163.09;5061322;28;20056;-95
2023/05/14 05:51:50;;;;;;;5.88;2.33;;;;;;;13.05;100.00;98171.34;5061047;28;20045;-95
2023/05/14 05:54:16;;;;;;;3.92;2.35;;;;;;;12.93;100.00;98151.47;5060274;28;20055;-96
2023/05/14 05:56:44;;;;;;;4.15;2.50;;;;;;;13.22;100.00;98191.94;5060380;28;20507;-95
2023/05/14 05:59:09;;;;;;;3.65;2.40;;;;;;;13.00;100.00;98161.84;5059105;28;20048;-94
2023/05/14 06:01:36;;;;;;;4.35;2.83;;;;;;;13.01;100.00;98160.91;5059986;28;20041;-94
2023/05/14 06:04:03;;;;;;;4.55;2.60;;;;;;;13.00;100.00;98164.53;5059692;28;20044;-95
2023/05/14 06:06:29;;;;;;;27.13;12.07;;;;;;;13.02;100.00;98176.84;5060451;28;20048;-96
2023/05/14 06:08:55;;;;;;;7.35;3.42;;;;;;;13.10;100.00;98173.84;5065085;28;20139;-96
2023/05/14 06:11:21;;;;;;;5.85;3.15;;;;;;;13.14;100.00;98167.38;5068734;28;20517;-95
2023/05/14 06:13:48;;;;;;;4.63;2.67;;;;;;;13.20;100.00;98155.56;5067263;28;20072;-96
2023/05/14 06:16:15;;;;;;;3.42;2.30;;;;;;;13.24;100.00;98160.69;5067762;28;20048;-96
2023/05/14 06:18:41;;;;;;;5.00;2.78;;;;;;;13.23;100.00;98160.75;5068539;28;20040;-96
2023/05/14 06:21:07;;;;;;;4.85;2.50;;;;;;;13.26;100.00;98173.97;5067067;28;20044;-95
2023/05/14 06:23:33;;;;;;;3.90;2.40;;;;;;;13.20;100.00;98152.91;5066073;28;20421;-95
2023/05/14 06:25:58;;;;;;;4.53;2.67;;;;;;;13.39;100.00;98177.81;5065814;28;20083;-96
2023/05/14 06:28:25;;;;;;;7.13;3.35;;;;;;;13.34;100.00;98170.03;5064393;28;20048;-92
2023/05/14 06:30:53;;;;;;;7.78;3.42;;;;;;;13.40;100.00;98184.00;5065400;28;20135;-94
2023/05/14 06:33:22;;;;;;;8.63;3.92;;;;;;;13.53;100.00;98202.06;5066292;28;20047;-94
2023/05/14 06:35:48;;;;;;;7.55;2.85;;;;;;;13.50;100.00;98175.50;5061685;28;20045;-95
2023/05/14 06:38:13;;;;;;;4.70;2.90;;;;;;;13.52;100.00;98178.94;5060464;28;20048;-94
2023/05/14 06:40:39;;;;;;;9.32;3.30;;;;;;;13.43;100.00;98187.41;5062069;28;20076;-93
2023/05/14 06:43:05;;;;;;;5.80;3.08;;;;;;;13.49;100.00;98194.28;5061906;28;20052;-93
2023/05/14 06:45:31;;;;;;;5.43;3.20;;;;;;;13.50;100.00;98193.31;5061031;28;20052;-93
2023/05/14 06:47:58;;;;;;;5.80;3.13;;;;;;;13.53;100.00;98191.38;5061419;28;20040;-93
2023/05/14 06:50:24;;;;;;;5.28;3.05;;;;;;;13.48;100.00;98184.53;5063172;28;20048;-93
2023/05/14 06:52:50;;;;;;;4.40;2.90;;;;;;;13.52;100.00;98172.75;5063892;28;20044;-94
2023/05/14 06:55:16;;;;;;;4.03;2.67;;;;;;;13.75;100.00;98201.88;5063792;28;20055;-95
2023/05/14 06:57:42;;;;;;;5.97;3.22;;;;;;;13.69;100.00;98180.81;5062735;28;20090;-94
2023/05/14 07:00:09;;;;;;;7.18;3.70;;;;;;;13.72;100.00;98174.44;5078235;28;20044;-94
2023/05/14 07:02:35;;;;;;;6.90;3.70;;;;;;;13.81;100.00;98162.44;5081275;28;20044;-93
2023/05/14 07:05:02;;;;;;;8.40;3.30;;;;;;;13.97;100.00;98169.59;5073641;28;20047;-93
2023/05/14 07:07:28;;;;;;;6.53;3.20;;;;;;;14.06;100.00;98168.28;5070893;28;20385;-93
2023/05/14 07:09:54;;;;;;;4.10;2.65;;;;;;;14.36;100.00;98210.44;5085552;28;20048;-94
2023/05/14 07:12:20;;;;;;;6.57;2.78;;;;;;;14.21;100.00;98171.13;5085244;28;20044;-93
2023/05/14 07:14:46;;;;;;;6.72;3.00;;;;;;;14.28;100.00;98194.78;5074330;28;20128;-93
2023/05/14 07:17:11;;;;;;;7.35;3.00;;;;;;;14.22;100.00;98175.50;5068186;28;20041;-93
2023/05/14 07:19:37;;;;;;;5.15;2.80;;;;;;;14.45;100.00;98196.59;5058435;28;20106;-94
2023/05/14 07:22:05;;;;;;;6.28;2.60;;;;;;;14.57;100.00;98177.25;5059256;28;20045;-94
2023/05/14 07:24:30;;;;;;;4.65;2.80;;;;;;;14.52;100.00;98176.59;5059315;28;20072;-95
2023/05/14 07:26:56;;;;;;;6.05;2.60;;;;;;;14.48;100.00;98158.09;5060161;28;20064;-94
2023/05/14 07:29:24;;;;;;;5.85;3.00;;;;;;;14.96;100.00;98180.53;5059301;28;20143;-94
2023/05/14 07:31:50;;;;;;;5.07;2.75;;;;;;;15.14;100.00;98184.91;5077660;28;20056;-93
2023/05/14 07:34:16;;;;;;;5.97;2.65;;;;;;;15.19;100.00;98161.41;5079414;28;20456;-94
2023/05/14 07:36:41;;;;;;;5.32;2.50;;;;;;;15.63;100.00;98194.69;5079215;28;20072;-92
2023/05/14 07:39:09;;;;;;;4.38;2.58;;;;;;;15.48;100.00;98163.41;5064471;28;20102;-95
2023/05/14 07:41:35;;;;;;;4.80;2.40;;;;;;;15.37;100.00;98193.47;5065571;28;20080;-95
2023/05/14 07:44:01;;;;;;;4.28;2.47;;;;;;;14.93;100.00;98208.34;5065249;28;20070;-94
2023/05/14 07:46:27;;;;;;;4.63;2.45;;;;;;;15.01;100.00;98194.56;5061599;28;20517;-94
2023/05/14 07:48:52;;;;;;;6.25;2.63;;;;;;;14.98;100.00;98179.53;5061532;28;20160;-94
2023/05/14 07:51:18;;;;;;;4.28;2.42;;;;;;;15.12;100.00;98169.88;5061282;28;20041;-94
2023/05/14 07:53:44;;;;;;;8.43;2.60;;;;;;;15.32;100.00;98172.28;5060413;28;20045;-95
2023/05/14 07:56:11;;;;;;;6.20;2.72;;;;;;;15.05;100.00;98160.44;5061625;28;20045;-95
2023/05/14 07:58:37;;;;;;;6.68;2.67;;;;;;;15.00;100.00;98185.63;5062083;28;20539;-93
2023/05/14 08:01:05;;;;;;;5.57;2.50;;;;;;;15.13;100.00;98171.59;5062587;28;20084;-94
2023/05/14 08:03:32;;;;;;;6.40;2.87;;;;;;;14.94;100.00;98193.13;5062860;28;20049;-93
2023/05/14 08:05:58;;;;;;;5.38;2.58;;;;;;;14.60;100.00;98162.00;5061795;28;20457;-94
2023/05/14 08:08:24;;;;;;;7.00;2.60;;;;;;;15.05;100.00;98203.28;5060984;28;20101;-93
2023/05/14 08:10:50;;;;;;;8.27;2.80;;;;;;;14.66;100.00;98169.66;5062689;28;20045;-95
2023/05/14 08:13:17;;;;;;;5.80;2.92;;;;;;;14.78;100.00;98151.16;5060857;28;20063;-94
2023/05/14 08:15:43;;;;;;;5.60;2.53;;;;;;;14.92;100.00;98147.75;5060740;28;20084;-94
2023/05/14 08:18:09;;;;;;;4.25;2.53;;;;;;;14.99;100.00;98162.50;5060692;28;20083;-93
2023/05/14 08:20:35;;;;;;;5.05;2.63;;;;;;;14.82;100.00;98135.78;5060706;28;20147;-94
2023/05/14 08:23:01;;;;;;;3.97;2.50;;;;;;;15.07;100.00;98161.22;5059091;28;20072;-94
2023/05/14 08:25:26;;;;;;;5.60;2.42;;;;;;;14.82;100.00;98154.53;5060587;28;20107;-94
2023/05/14 08:27:53;;;;;;;5.18;2.55;;;;;;;14.67;100.00;98142.84;5060998;28;20156;-94
2023/05/14 08:30:21;;;;;;;4.10;2.50;;;;;;;14.96;100.00;98138.59;5059643;28;20067;-93
2023/05/14 08:32:47;;;;;;;3.93;2.70;;;;;;;15.00;100.00;98176.75;5061019;28;20052;-94
2023/05/14 08:35:13;;;;;;;8.52;3.05;;;;;;;14.71;100.00;98170.31;5057259;28;20056;-96
2023/05/14 08:37:39;;;;;;;4.38;2.65;;;;;;;14.97;100.00;98188.50;5057110;28;20041;-94
2023/05/14 08:40:07;;;;;;;5.05;2.90;;;;;;;14.98;100.00;98154.53;5059256;28;20045;-94
2023/05/14 08:42:33;;;;;;;7.55;3.55;;;;;;;15.23;100.00;98161.25;5059875;28;20045;-96
2023/05/14 08:45:01;;;;;;;5.75;3.97;;;;;;;15.48;100.00;98176.78;5060768;28;20056;-94
2023/05/14 08:47:29;;;;;;;6.40;3.40;;;;;;;15.47;97.30;98153.66;5059147;28;20047;-94
2023/05/14 08:50:01;;;;;;;7.03;3.13;;;;;;;15.57;96.58;98173.59;5059326;28;20072;-94
2023/05/14 08:52:27;;;;;;;6.72;3.30;;;;;;;15.33;100.00;98178.50;5060469;28;20045;-94
2023/05/14 08:54:58;;;;;;;6.22;3.30;;;;;;;15.23;100.00;98155.88;5059915;28;20049;-95
2023/05/14 08:57:29;;;;;;;6.25;3.20;;;;;;;15.24;100.00;98173.69;5060298;28;20040;-95
2023/05/14 08:59:55;;;;;;;9.93;3.42;;;;;;;15.21;99.29;98188.09;5060299;28;20060;-94
2023/05/14 09:02:23;;;;;;;8.27;2.83;;;;;;;15.17;100.00;98211.50;5060950;28;20047;-95
2023/05/14 09:04:54;;;;;;;5.35;2.80;;;;;;;14.92;100.00;98203.06;5059921;28;20045;-95
2023/05/14 09:07:20;;;;;;;5.93;3.88;;;;;;;14.79;100.00;98166.28;5060154;28;20494;-93
2023/05/14 09:09:47;;;;;;;8.40;3.03;;;;;;;14.98;100.00;98184.00;5059431;28;20060;-94
2023/05/14 09:12:13;;;;;;;4.32;2.75;;;;;;;15.15;100.00;98175.06;5059513;28;20041;-95
2023/05/14 09:14:39;;;;;;;8.23;3.55;;;;;;;15.23;100.00;98174.63;5059187;28;20052;-95
2023/05/14 09:17:05;;;;;;;5.65;3.00;;;;;;;15.28;100.00;98194.84;5058991;28;20087;-94
2023/05/14 09:19:31;;;;;;;5.82;3.13;;;;;;;15.00;100.00;98172.25;5059230;28;20045;-95
2023/05/14 09:21:59;;;;;;;5.25;3.10;;;;;;;14.89;100.00;98171.13;5060141;28;20048;-93
2023/05/14 09:24:29;;;;;;;5.13;3.20;;;;;;;14.89;100.00;98192.53;5061859;28;20084;-95
2023/05/14 09:27:01;;;;;;;6.63;3.25;;;;;;;14.50;100.00;98167.78;5059097;28;20041;-95
2023/05/14 09:29:28;;;;;;;5.85;3.15;;;;;;;14.23;100.00;98161.22;5058412;28;20052;-94
2023/05/14 09:31:55;;;;;;;6.15;3.15;;;;;;;14.20;100.00;98172.03;5058759;28;20048;-95
2023/05/14 09:34:25;;;;;;;6.68;3.35;;;;;;;14.42;100.00;98195.88;5059403;28;20053;-94
2023/05/14 09:36:55;;;;;;;5.35;3.22;;;;;;;14.21;100.00;98177.31;5058852;28;20144;-95
2023/05/14 09:39:24;;;;;;;5.00;3.28;;;;;;;14.31;100.00;98202.66;5059200;28;20509;-95
2023/05/14 09:41:54;;;;;;;5.83;3.30;;;;;;;14.38;100.00;98188.03;5058676;28;20040;-96
2023/05/14 09:44:21;;;;;;;5.43;3.35;;;;;;;14.38;100.00;98173.78;5064874;28;20120;-95
2023/05/14 09:46:48;;;;;;;6.45;3.20;;;;;;;14.38;100.00;98166.63;5066870;28;20044;-95
2023/05/14 09:49:14;;;;;;;7.10;4.50;;;;;;;14.62;100.00;98170.81;5077900;28;20039;-95
2023/05/14 09:51:40;;;;;;;12.32;5.60;;;;;;;14.90;100.00;98170.19;5085923;28;20050;-96
2023/05/14 09:54:07;;;;;;;7.68;4.50;;;;;;;15.13;100.00;98195.69;5085164;28;20143;-94
2023/05/14 09:56:43;;;;;;;7.93;4.22;;;;;;;15.24;100.00;98158.47;5085336;28;20101;-95
2023/05/14 09:59:08;;;;;;;7.90;4.95;;;;;;;15.39;100.00;98170.13;5085022;28;20501;-94
2023/05/14 10:01:36;;;;;;;7.78;4.15;;;;;;;15.97;100.00;98166.81;5080883;28;20148;-95
2023/05/14 10:04:05;;;;;;;10.20;3.95;;;;;;;16.26;100.00;98164.22;5075776;28;20040;-95
2023/05/14 10:06:35;;;;;;;9.73;3.30;;;;;;;17.27;91.07;98173.25;5064136;28;20494;-95
2023/05/14 10:09:04;;;;;;;5.88;3.53;;;;;;;17.57;85.55;98156.97;5062425;28;20135;-95
2023/05/14 10:11:32;;;;;;;5.97;3.33;;;;;;;17.79;89.76;98150.19;5060462;28;20070;-95
2023/05/14 10:14:03;;;;;;;6.03;3.87;;;;;;;18.51;84.50;98168.69;5062385;28;20458;-95
2023/05/14 10:16:33;;;;;;;7.32;4.20;;;;;;;17.53;85.73;98165.34;5063640;28;20143;-95
2023/05/14 10:19:03;;;;;;;6.43;3.88;;;;;;;17.59;84.29;98167.63;5063848;28;20044;-96
2023/05/14 10:21:33;;;;;;;7.00;3.60;;;;;;;17.66;84.13;98169.81;5062789;28;20411;-95
2023/05/14 10:24:00;;;;;;;6.35;3.50;;;;;;;17.38;87.11;98173.41;5063419;28;20043;-95
2023/05/14 10:26:27;;;;;;;5.60;3.38;;;;;;;17.78;87.40;98169.97;5062318;28;20044;-95
2023/05/14 10:28:54;;;;;;;4.65;3.55;;;;;;;17.98;87.22;98164.16;5061689;28;20049;-95
2023/05/14 10:31:50;;;;;;;7.60;4.20;;;;;;;18.86;81.08;98166.25;5063057;28;20040;-95
2023/05/14 10:34:40;;;;;;;7.10;3.90;;;;;;;18.82;82.45;98165.63;5060847;28;20068;-95
2023/05/14 10:37:09;;;;;;;8.15;4.25;;;;;;;18.70;80.58;98161.06;5062077;28;20062;-96
2023/05/14 10:39:44;;;;;;;5.20;3.25;;;;;;;17.94;81.96;98167.16;5061461;28;20111;-96
2023/05/14 10:42:20;;;;;;;5.32;3.20;;;;;;;17.57;83.29;98170.41;5061247;28;20059;-95
2023/05/14 10:44:52;;;;;;;5.35;3.47;;;;;;;18.13;82.47;98167.66;5079650;28;20048;-94
2023/05/14 10:47:20;;;;;;;5.38;3.70;;;;;;;17.96;84.25;98195.69;5081175;28;20047;-95
2023/05/14 10:49:48;;;;;;;8.60;5.18;;;;;;;17.89;84.95;98156.72;5081556;28;20040;-95
2023/05/14 10:52:18;;;;;;;8.25;4.55;;;;;;;18.15;83.71;98149.56;5072157;28;20040;-94
2023/05/14 10:54:59;;;;;;;6.15;4.22;;;;;;;18.18;83.58;98160.13;5066270;28;20040;-94
2023/05/14 10:57:27;;;;;;;5.65;3.70;;;;;;;18.23;81.99;98155.28;5064192;28;20078;-96
2023/05/14 10:59:57;;;;;;;5.40;4.03;;;;;;;18.35;83.20;98140.13;5063725;28;20040;-96
2023/05/14 11:02:27;;;;;;;7.45;4.18;;;;;;;19.40;78.67;98149.78;5061412;28;20151;-94
2023/05/14 11:04:58;;;;;;;7.43;4.07;;;;;;;19.78;74.59;98140.75;5070225;28;20072;-94
2023/05/14 11:07:27;;;;;;;4.65;3.22;;;;;;;19.72;74.82;98138.50;5083387;28;20138;-94
2023/05/14 11:10:03;;;;;;;6.65;3.90;;;;;;;19.66;73.41;98138.91;5081264;28;20078;-93
2023/05/14 11:12:30;;;;;;;6.63;4.00;;;;;;;18.95;76.11;98133.25;5081868;28;20040;-94
2023/05/14 11:14:58;;;;;;;7.18;4.07;;;;;;;19.24;74.98;98124.94;5081165;28;20130;-94
2023/05/14 11:17:30;;;;;;;7.63;3.70;;;;;;;19.49;74.94;98137.44;5080879;28;20048;-94
2023/05/14 11:20:04;;;;;;;16.75;4.18;;;;;;;19.63;74.07;98155.34;5081518;28;20048;-93
2023/05/14 11:22:31;;;;;;;6.18;3.97;;;;;;;19.55;71.62;98128.06;5081353;28;20051;-93
2023/05/14 11:25:00;;;;;;;6.57;4.03;;;;;;;18.22;76.22;98099.75;5082587;28;20040;-95
2023/05/14 11:27:28;;;;;;;6.10;3.70;;;;;;;18.67;76.57;98123.53;5082384;28;20079;-95